Time;durP1;ratioP1;P1;durP2;ratioP2;P2;SDS_P1;SDS_P2;PMS_P1;PMS_P2;Temp;Humidity;BMP_temperature;BMP_pressure;BME280_temperature;BME280_humidity;BME280_pressure;Samples;Min_cycle;Max_cycle;Signal;HPM_P1;HPM_P2
2021/12/20 00:00:16;;;;;;;8.90;1.50;;;;;;;-145.18;100.00;47519.97;5039990;28;20282;-71
2021/12/20 00:02:44;;;;;;;14.10;1.50;;;;;;;-145.18;100.00;47518.00;5050989;28;20128;-71
2021/12/20 00:05:10;;;;;;;7.43;1.70;;;;;;;-145.18;100.00;47531.69;5050585;28;20278;-71
2021/12/20 00:07:36;;;;;;;13.27;1.67;;;;;;;-145.18;100.00;47523.88;5050541;28;20304;-72
2021/12/20 00:10:04;;;;;;;10.23;1.17;;;;;;;-145.18;100.00;47533.63;5051292;28;20313;-71
2021/12/20 00:12:29;;;;;;;12.53;2.10;;;;;;;-145.18;100.00;47537.53;5050608;28;20041;-72
2021/12/20 00:14:55;;;;;;;12.80;1.70;;;;;;;-145.18;100.00;47539.50;5046385;28;21044;-72
2021/12/20 00:17:20;;;;;;;6.40;1.40;;;;;;;-145.18;100.00;47521.91;5050818;28;20049;-71
2021/12/20 00:19:45;;;;;;;13.63;1.30;;;;;;;-145.18;100.00;47516.06;5050187;28;20041;-72
2021/12/20 00:22:11;;;;;;;13.43;1.77;;;;;;;-145.18;100.00;47555.13;5049219;28;20041;-71
2021/12/20 00:24:36;;;;;;;8.73;1.60;;;;;;;-145.18;100.00;47527.78;5048008;28;20386;-71
2021/12/20 00:27:06;;;;;;;12.87;1.90;;;;;;;-145.18;100.00;47535.59;5050533;28;20183;-71
2021/12/20 00:29:31;;;;;;;9.63;1.37;;;;;;;-145.18;100.00;47510.19;5048985;28;20116;-71
2021/12/20 00:31:56;;;;;;;15.63;1.57;;;;;;;-145.18;100.00;47539.50;5049888;28;20353;-72
2021/12/20 00:34:22;;;;;;;16.93;2.50;;;;;;;-145.18;100.00;47537.53;5050281;28;20496;-71
2021/12/20 00:36:56;;;;;;;9.13;1.40;;;;;;;-145.18;100.00;47527.78;5049800;28;20045;-72
2021/12/20 00:42:05;;;;;;;10.70;1.40;;;;;;;-145.18;100.00;47525.81;5050068;28;20308;-71
2021/12/20 00:44:31;;;;;;;15.80;1.60;;;;;;;-145.18;100.00;47539.50;5049954;28;20274;-71
2021/12/20 00:46:56;;;;;;;16.60;1.70;;;;;;;-145.18;100.00;47523.88;5049660;28;20426;-72
2021/12/20 00:49:22;;;;;;;14.50;1.70;;;;;;;-145.18;100.00;47516.06;5049783;28;20090;-71
2021/12/20 00:51:47;;;;;;;8.83;1.50;;;;;;;-145.18;100.00;47543.41;5049564;28;20076;-71
2021/12/20 00:54:12;;;;;;;7.50;1.47;;;;;;;-145.18;100.00;47533.63;5050371;28;20051;-71
2021/12/20 00:56:38;;;;;;;19.77;2.30;;;;;;;-145.18;100.00;47543.41;5049801;28;20405;-72
2021/12/20 00:59:03;;;;;;;18.13;2.63;;;;;;;-145.18;100.00;47541.44;5049881;28;20045;-72
2021/12/20 01:01:29;;;;;;;9.00;1.50;;;;;;;-145.18;100.00;47543.41;5049598;28;20075;-72
2021/12/20 01:03:54;;;;;;;13.07;1.50;;;;;;;-145.18;100.00;47547.31;5049303;28;20044;-72
2021/12/20 01:06:20;;;;;;;17.70;2.03;;;;;;;-145.18;100.00;47545.34;5049484;28;20051;-72
2021/12/20 01:08:47;;;;;;;17.37;1.60;;;;;;;-145.18;100.00;47516.06;5047928;28;20124;-72
2021/12/20 01:11:19;;;;;;;16.23;2.87;;;;;;;-145.18;100.00;47531.69;5049632;28;20041;-72
2021/12/20 01:13:45;;;;;;;11.53;1.93;;;;;;;-145.18;100.00;47535.59;5049457;28;20274;-72
2021/12/20 01:16:12;;;;;;;17.23;2.43;;;;;;;-145.18;100.00;47518.00;5049128;28;20266;-72
2021/12/20 01:18:38;;;;;;;15.43;2.50;;;;;;;-145.18;100.00;47527.78;5049422;28;20457;-72
2021/12/20 01:21:03;;;;;;;24.23;2.93;;;;;;;-145.18;100.00;47541.44;5044181;28;20279;-71
2021/12/20 01:23:29;;;;;;;22.60;2.00;;;;;;;-145.18;100.00;47533.63;5027877;28;20965;-72
2021/12/20 01:25:54;;;;;;;15.40;1.93;;;;;;;-145.18;100.00;47535.59;5029419;28;20524;-71
2021/12/20 01:28:20;;;;;;;17.20;2.30;;;;;;;-145.18;100.00;47519.97;5029966;28;20046;-71
2021/12/20 01:30:45;;;;;;;12.77;2.00;;;;;;;-145.18;100.00;47543.41;5028842;28;20121;-72
2021/12/20 01:33:12;;;;;;;18.77;1.90;;;;;;;-145.18;100.00;47557.06;5029053;28;20124;-71
2021/12/20 01:35:39;;;;;;;18.70;2.33;;;;;;;-145.18;100.00;47539.50;5029130;28;20060;-71
2021/12/20 01:38:05;;;;;;;21.90;2.47;;;;;;;-145.18;100.00;47523.88;5029172;28;20362;-72
2021/12/20 01:40:31;;;;;;;21.77;2.30;;;;;;;-145.18;100.00;47543.41;5028867;28;20271;-72
2021/12/20 01:42:58;;;;;;;25.10;2.67;;;;;;;-145.18;100.00;47555.13;5029190;28;20267;-71
2021/12/20 01:45:26;;;;;;;19.70;2.30;;;;;;;-145.18;100.00;47533.63;5029377;28;20045;-71
2021/12/20 01:48:05;;;;;;;21.23;3.37;;;;;;;-145.18;100.00;47551.22;5028585;28;20668;-72
2021/12/20 01:51:00;;;;;;;20.10;2.40;;;;;;;-145.18;100.00;47555.13;5029228;28;20779;-71
2021/12/20 01:53:25;;;;;;;26.77;2.63;;;;;;;-145.18;100.00;47533.63;5028847;28;20389;-71
2021/12/20 01:55:53;;;;;;;15.60;2.47;;;;;;;-145.18;100.00;47541.44;5028521;28;20282;-72
2021/12/20 01:58:18;;;;;;;18.67;2.87;;;;;;;-145.18;100.00;47531.69;5010880;28;20080;-71
2021/12/20 02:03:29;;;;;;;25.93;2.80;;;;;;;-145.18;100.00;47543.41;5029179;28;20095;-71
2021/12/20 02:05:58;;;;;;;20.13;3.07;;;;;;;-145.18;100.00;47531.69;5011040;28;20346;-72
2021/12/20 02:08:26;;;;;;;18.47;2.97;;;;;;;-145.18;100.00;47551.22;5028377;28;20826;-71
2021/12/20 02:10:55;;;;;;;20.83;3.20;;;;;;;-145.18;100.00;47557.06;5028092;28;20267;-71
2021/12/20 02:13:21;;;;;;;24.10;2.93;;;;;;;-145.18;100.00;47547.31;5028498;28;20362;-72
2021/12/20 02:15:47;;;;;;;36.60;3.43;;;;;;;-145.18;100.00;47549.25;5028489;28;20371;-72
2021/12/20 02:18:12;;;;;;;16.43;2.10;;;;;;;-145.18;100.00;47547.31;5010653;28;20540;-72
2021/12/20 02:20:38;;;;;;;17.70;2.27;;;;;;;-145.18;100.00;47539.50;5028564;28;20041;-72
2021/12/20 02:23:06;;;;;;;28.73;2.97;;;;;;;-145.18;100.00;47555.13;5028296;28;20087;-72
2021/12/20 02:25:32;;;;;;;18.23;3.37;;;;;;;-145.18;100.00;47539.50;5028420;28;20387;-72
2021/12/20 02:28:12;;;;;;;19.40;2.40;;;;;;;-145.18;100.00;47539.50;5028064;28;20456;-72
2021/12/20 02:30:51;;;;;;;30.17;2.40;;;;;;;-145.18;100.00;47545.34;5028095;28;20275;-72
2021/12/20 02:38:47;;;;;;;27.00;3.33;;;;;;;-145.18;100.00;47551.22;5028167;28;20301;-72
2021/12/20 02:41:16;;;;;;;22.87;2.97;;;;;;;-145.18;100.00;47561.00;5027656;28;20973;-72
2021/12/20 02:43:52;;;;;;;22.70;2.20;;;;;;;-145.18;100.00;47543.41;5027803;28;20273;-72
2021/12/20 02:46:30;;;;;;;21.65;2.83;;;;;;;-145.18;100.00;47551.22;5027462;28;20336;-72
2021/12/20 02:48:56;;;;;;;25.83;3.00;;;;;;;-145.18;100.00;47545.34;5028021;28;20092;-72
2021/12/20 02:51:26;;;;;;;24.17;3.13;;;;;;;-145.18;100.00;47543.41;5027687;28;20970;-72
2021/12/20 02:53:54;;;;;;;20.77;2.37;;;;;;;-145.18;100.00;47533.63;5027596;28;20048;-72
2021/12/20 02:56:19;;;;;;;28.03;3.40;;;;;;;-145.18;100.00;47553.16;5027289;28;20266;-72
2021/12/20 02:58:45;;;;;;;23.43;2.73;;;;;;;-145.18;100.00;47521.91;5027820;28;20283;-72
2021/12/20 03:01:10;;;;;;;19.30;2.30;;;;;;;-145.18;100.00;47547.31;5027822;28;20053;-72
2021/12/20 03:03:36;;;;;;;21.93;2.47;;;;;;;-145.18;100.00;47531.69;5027439;28;20260;-72
2021/12/20 03:06:18;;;;;;;21.13;3.03;;;;;;;-145.18;100.00;47555.13;5027945;28;20044;-72
2021/12/20 03:08:47;;;;;;;21.50;2.97;;;;;;;-145.18;100.00;47531.69;5027518;28;20099;-72
2021/12/20 03:11:12;;;;;;;23.17;3.00;;;;;;;-145.18;100.00;47543.41;5027346;28;20385;-72
2021/12/20 03:13:38;;;;;;;17.30;3.10;;;;;;;-145.18;100.00;47539.50;5027147;28;20387;-72
2021/12/20 03:16:04;;;;;;;26.33;3.63;;;;;;;-145.18;100.00;47545.34;5027459;28;20524;-72
2021/12/20 03:18:29;;;;;;;22.30;2.40;;;;;;;-145.18;100.00;47543.41;5027266;28;20045;-72
2021/12/20 03:20:55;;;;;;;25.43;3.47;;;;;;;-145.18;100.00;47543.41;5026913;28;20041;-72
2021/12/20 03:23:21;;;;;;;28.40;4.87;;;;;;;-145.18;100.00;47539.50;5027914;28;20454;-72
2021/12/20 03:25:46;;;;;;;26.33;3.60;;;;;;;-145.18;100.00;47557.06;5026945;28;20037;-72
2021/12/20 03:28:12;;;;;;;21.70;2.87;;;;;;;-145.18;100.00;47543.41;5026990;28;20286;-72
2021/12/20 03:30:37;;;;;;;17.63;2.43;;;;;;;-145.18;100.00;47557.06;5027226;28;20044;-72
2021/12/20 03:33:03;;;;;;;20.27;2.43;;;;;;;-145.18;100.00;47551.22;5026225;28;20044;-72
2021/12/20 03:35:28;;;;;;;27.57;3.17;;;;;;;-145.18;100.00;47539.50;5026967;28;20375;-72
2021/12/20 03:37:53;;;;;;;19.43;2.60;;;;;;;-145.18;100.00;47543.41;5027277;28;20033;-72
2021/12/20 03:40:19;;;;;;;18.77;2.20;;;;;;;-145.18;100.00;47557.06;5009642;28;20120;-72
2021/12/20 03:42:45;;;;;;;21.93;2.53;;;;;;;-145.18;100.00;47562.94;5026946;28;20036;-72
2021/12/20 03:45:15;;;;;;;18.43;2.40;;;;;;;-145.18;100.00;47551.22;5027105;28;20091;-71
2021/12/20 03:47:42;;;;;;;29.33;2.77;;;;;;;-145.18;100.00;47537.53;5026553;28;20365;-72
2021/12/20 03:50:09;;;;;;;25.87;3.47;;;;;;;-145.18;100.00;47527.78;5026756;28;20358;-72
2021/12/20 03:52:34;;;;;;;17.60;3.07;;;;;;;-145.18;100.00;47535.59;5026703;28;20306;-72
2021/12/20 03:54:59;;;;;;;22.67;2.53;;;;;;;-145.18;100.00;47525.81;5009593;28;20259;-72
2021/12/20 03:57:26;;;;;;;14.17;2.27;;;;;;;-145.18;100.00;47537.53;5026736;28;20042;-72
2021/12/20 03:59:53;;;;;;;24.23;3.07;;;;;;;-145.18;100.00;47537.53;5026789;28;20040;-72
2021/12/20 04:02:20;;;;;;;24.23;2.87;;;;;;;-145.18;100.00;47551.22;5026686;28;20358;-72
2021/12/20 04:04:46;;;;;;;26.77;3.17;;;;;;;-145.18;100.00;47547.31;5026818;28;20282;-72
2021/12/20 04:07:11;;;;;;;14.93;2.27;;;;;;;-145.18;100.00;47564.91;5026645;28;20317;-72
2021/12/20 04:09:37;;;;;;;25.20;2.70;;;;;;;-145.18;100.00;47551.22;5026849;28;20318;-72
2021/12/20 04:12:02;;;;;;;24.70;3.13;;;;;;;-145.18;100.00;47543.41;5026912;28;20052;-72
2021/12/20 04:14:28;;;;;;;13.87;3.07;;;;;;;-145.18;100.00;47533.63;5026744;28;20049;-72
2021/12/20 04:16:53;;;;;;;20.83;2.43;;;;;;;-145.18;100.00;47547.31;5008838;28;20034;-72
2021/12/20 04:19:19;;;;;;;21.27;3.07;;;;;;;-145.18;100.00;47551.22;5026771;28;20044;-72
2021/12/20 04:21:44;;;;;;;21.00;2.60;;;;;;;-145.18;100.00;47545.34;5026276;28;20044;-72
2021/12/20 04:24:09;;;;;;;26.00;3.13;;;;;;;-145.18;100.00;47547.31;5026581;28;20068;-72
2021/12/20 04:26:35;;;;;;;20.77;2.20;;;;;;;-145.18;100.00;47533.63;5027146;28;20148;-72
2021/12/20 04:29:00;;;;;;;27.07;3.63;;;;;;;-145.18;100.00;47561.00;5026447;28;20402;-72
2021/12/20 04:31:27;;;;;;;22.00;3.00;;;;;;;-145.18;100.00;47547.31;5026728;28;20119;-72
2021/12/20 04:33:53;;;;;;;22.73;3.47;;;;;;;-145.18;100.00;47535.59;5026378;28;20037;-72
2021/12/20 04:36:18;;;;;;;20.53;2.63;;;;;;;-145.18;100.00;47545.34;5008739;28;20286;-72
2021/12/20 04:38:44;;;;;;;22.17;2.87;;;;;;;-145.18;100.00;47545.34;5026254;28;20041;-72
2021/12/20 04:41:09;;;;;;;24.47;3.73;;;;;;;-145.18;100.00;47572.72;5027112;28;20050;-72
2021/12/20 04:43:35;;;;;;;27.60;3.27;;;;;;;-145.18;100.00;47559.03;5027198;28;20042;-72
2021/12/20 04:46:00;;;;;;;34.33;3.73;;;;;;;-145.18;100.00;47519.97;5030127;28;20045;-72
2021/12/20 04:48:26;;;;;;;30.57;3.83;;;;;;;-145.18;100.00;47555.13;5029674;28;20123;-72
2021/12/20 04:50:51;;;;;;;37.20;3.30;;;;;;;-145.18;100.00;47557.06;5029796;28;20498;-72
2021/12/20 04:53:17;;;;;;;29.73;2.90;;;;;;;-145.18;100.00;47523.88;5030059;28;20049;-72
2021/12/20 04:55:42;;;;;;;19.43;2.77;;;;;;;-145.18;100.00;47551.22;5030625;28;20045;-72
2021/12/20 04:58:08;;;;;;;29.43;3.17;;;;;;;-145.18;100.00;47539.50;5029601;28;20033;-72
2021/12/20 05:00:37;;;;;;;30.13;2.83;;;;;;;-145.18;100.00;47551.22;5029999;28;20049;-72
2021/12/20 05:03:04;;;;;;;25.17;3.20;;;;;;;-145.18;100.00;47543.41;5029768;28;20037;-72
2021/12/20 05:05:30;;;;;;;19.60;3.07;;;;;;;-145.18;100.00;47553.16;5029547;28;20674;-72
2021/12/20 05:07:56;;;;;;;21.17;2.83;;;;;;;-145.18;100.00;47555.13;5028867;28;20751;-71
2021/12/20 05:10:27;;;;;;;26.40;3.50;;;;;;;-145.18;100.00;47559.03;5028666;28;20045;-72
2021/12/20 05:12:58;;;;;;;16.93;2.23;;;;;;;-145.18;100.00;47537.53;5027503;28;20068;-72
2021/12/20 05:15:24;;;;;;;28.20;2.80;;;;;;;-145.18;100.00;47533.63;5031523;28;20278;-72
2021/12/20 05:17:51;;;;;;;21.30;2.60;;;;;;;-145.18;100.00;47541.44;5040462;28;20281;-72
2021/12/20 05:20:16;;;;;;;24.43;3.30;;;;;;;-145.18;100.00;47562.94;5047866;28;20751;-72
2021/12/20 05:22:43;;;;;;;18.17;2.23;;;;;;;-145.18;100.00;47559.03;5047368;28;20321;-71
2021/12/20 05:25:09;;;;;;;30.20;4.57;;;;;;;-145.18;100.00;47525.81;5044543;28;20040;-72
2021/12/20 05:27:34;;;;;;;23.37;2.60;;;;;;;-145.18;100.00;47539.50;5044685;28;20729;-72
2021/12/20 05:30:00;;;;;;;24.17;2.77;;;;;;;-145.18;100.00;47533.63;5046853;28;20395;-72
2021/12/20 05:32:26;;;;;;;21.53;2.60;;;;;;;-145.18;100.00;47553.16;5046661;28;20044;-72
2021/12/20 05:34:51;;;;;;;25.07;3.17;;;;;;;-145.18;100.00;47543.41;5047634;28;20052;-71
2021/12/20 05:37:17;;;;;;;28.40;3.20;;;;;;;-145.18;100.00;47519.97;5046769;28;20494;-72
2021/12/20 05:39:43;;;;;;;30.00;3.50;;;;;;;-145.18;100.00;47555.13;5047325;28;20069;-72
2021/12/20 05:42:08;;;;;;;24.47;2.97;;;;;;;-145.18;100.00;47549.25;5047129;28;20045;-72
2021/12/20 05:44:34;;;;;;;14.83;2.70;;;;;;;-145.18;100.00;47543.41;5047047;28;20266;-72
2021/12/20 05:47:00;;;;;;;23.17;3.07;;;;;;;-145.18;100.00;47547.31;5045021;28;20041;-72
2021/12/20 05:49:26;;;;;;;15.83;3.40;;;;;;;-145.18;100.00;47547.31;5049592;28;20056;-72
2021/12/20 05:51:51;;;;;;;19.97;2.80;;;;;;;-145.18;100.00;47551.22;5048479;28;20036;-73
2021/12/20 05:54:17;;;;;;;25.23;3.33;;;;;;;-145.18;100.00;47557.06;5048675;28;20079;-72
2021/12/20 05:56:42;;;;;;;25.03;3.03;;;;;;;-145.18;100.00;47551.22;5047795;28;20379;-72
2021/12/20 05:59:07;;;;;;;22.63;2.70;;;;;;;-145.18;100.00;47545.34;5048728;28;20129;-72
2021/12/20 06:01:33;;;;;;;18.50;2.70;;;;;;;-145.18;100.00;47551.22;5048524;28;20041;-72
2021/12/20 06:03:58;;;;;;;18.23;3.13;;;;;;;-145.18;100.00;47539.50;5048776;28;20045;-72
2021/12/20 06:06:27;;;;;;;14.50;3.97;;;;;;;-145.18;100.00;47553.16;5048612;28;20041;-73
2021/12/20 06:08:52;;;;;;;21.83;2.60;;;;;;;-145.18;100.00;47545.34;5031143;28;20044;-72
2021/12/20 06:11:18;;;;;;;21.53;2.60;;;;;;;-145.18;99.43;47539.50;5048415;28;20281;-72
2021/12/20 06:13:43;;;;;;;27.70;2.73;;;;;;;-145.18;100.00;47539.50;5047723;28;20748;-72
2021/12/20 06:16:09;;;;;;;34.57;2.97;;;;;;;-145.18;100.00;47551.22;5047986;28;20144;-72
2021/12/20 06:18:34;;;;;;;17.50;2.63;;;;;;;-145.18;100.00;47533.63;5030048;28;20037;-73
2021/12/20 06:20:59;;;;;;;11.23;2.30;;;;;;;-145.18;100.00;47553.16;5047645;28;20033;-73
2021/12/20 06:23:25;;;;;;;22.60;2.73;;;;;;;-145.18;100.00;47559.03;5044263;28;20460;-73
2021/12/20 06:25:50;;;;;;;21.10;2.20;;;;;;;-145.18;100.00;47551.22;5046667;28;20033;-72
2021/12/20 06:28:16;;;;;;;26.80;3.70;;;;;;;-145.18;100.00;47557.06;5044825;28;20083;-72
2021/12/20 06:30:41;;;;;;;16.43;1.93;;;;;;;-145.18;99.71;47533.63;5047143;28;20045;-72
2021/12/20 06:33:06;;;;;;;19.17;2.63;;;;;;;-145.18;97.53;47543.41;5046473;28;20052;-73
2021/12/20 06:35:32;;;;;;;13.20;3.27;;;;;;;-145.18;100.00;47562.94;5047228;28;20045;-73
2021/12/20 06:38:00;;;;;;;12.43;2.10;;;;;;;-145.18;100.00;47539.50;5047182;28;20041;-72
2021/12/20 06:40:27;;;;;;;21.23;2.73;;;;;;;-145.18;100.00;47539.50;5046887;28;20094;-73
2021/12/20 06:42:53;;;;;;;15.87;2.13;;;;;;;-145.18;100.00;47535.59;5045728;28;20270;-73
2021/12/20 06:45:18;;;;;;;13.43;2.70;;;;;;;-145.18;100.00;47533.63;5047241;28;20638;-73
2021/12/20 06:47:44;;;;;;;13.60;2.27;;;;;;;-145.18;100.00;47529.72;5047461;28;20813;-73
2021/12/20 06:50:09;;;;;;;24.53;2.53;;;;;;;-145.18;100.00;47523.88;5047198;28;20045;-73
2021/12/20 06:52:35;;;;;;;17.37;2.70;;;;;;;-145.18;100.00;47549.25;5046836;28;20319;-73
2021/12/20 06:55:00;;;;;;;22.70;2.63;;;;;;;-145.18;100.00;47533.63;5029000;28;20136;-73
2021/12/20 06:57:26;;;;;;;20.73;2.17;;;;;;;-145.18;100.00;47553.16;5044610;28;20056;-73
2021/12/20 06:59:51;;;;;;;21.93;2.27;;;;;;;-145.18;100.00;47545.34;5034204;28;20506;-73
2021/12/20 07:02:17;;;;;;;15.93;3.27;;;;;;;-145.18;100.00;47555.13;5045609;28;20049;-73
2021/12/20 07:04:43;;;;;;;11.30;2.47;;;;;;;-145.18;99.34;47562.94;5046994;28;20486;-73
2021/12/20 07:07:08;;;;;;;20.43;3.87;;;;;;;-145.18;99.60;47551.22;5028463;28;20113;-73
2021/12/20 07:09:33;;;;;;;20.23;3.47;;;;;;;-145.18;100.00;47549.25;5046485;28;20068;-72
2021/12/20 07:12:00;;;;;;;18.13;2.60;;;;;;;-145.18;100.00;47541.44;5043307;28;20432;-73
2021/12/20 07:14:26;;;;;;;30.03;4.40;;;;;;;-145.18;100.00;47557.06;5046303;28;20045;-73
2021/12/20 07:16:52;;;;;;;23.50;3.60;;;;;;;-145.18;100.00;47562.94;5046371;28;20284;-73
2021/12/20 07:19:17;;;;;;;19.70;2.90;;;;;;;-145.18;100.00;47535.59;5046598;28;20635;-73
2021/12/20 07:21:43;;;;;;;19.40;2.70;;;;;;;-145.18;100.00;47547.31;5046804;28;20128;-73
2021/12/20 07:24:08;;;;;;;19.27;2.40;;;;;;;-145.18;100.00;47543.41;5046342;28;20045;-73
2021/12/20 07:26:34;;;;;;;22.73;2.50;;;;;;;-145.18;100.00;47559.03;5045650;28;20513;-73
2021/12/20 07:28:59;;;;;;;17.07;2.77;;;;;;;-145.18;100.00;47541.44;5044797;28;20036;-73
2021/12/20 07:31:25;;;;;;;24.60;2.57;;;;;;;-145.18;100.00;47561.00;5031906;28;20512;-73
2021/12/20 07:33:50;;;;;;;12.00;2.20;;;;;;;-145.18;100.00;47562.94;5044490;28;20051;-73
2021/12/20 07:36:19;;;;;;;17.10;2.47;;;;;;;-145.18;100.00;47551.22;5046346;28;20051;-73
2021/12/20 07:38:45;;;;;;;17.23;2.33;;;;;;;-145.18;100.00;47537.53;5039214;28;20074;-73
2021/12/20 07:41:10;;;;;;;24.47;3.50;;;;;;;-145.18;100.00;47547.31;5046429;28;20989;-73
2021/12/20 07:43:36;;;;;;;19.07;2.30;;;;;;;-145.18;100.00;47547.31;5045025;28;20425;-73
2021/12/20 07:46:01;;;;;;;20.80;2.50;;;;;;;-145.18;100.00;47561.00;5046158;28;20413;-73
2021/12/20 07:48:27;;;;;;;14.17;3.00;;;;;;;-145.18;100.00;47539.50;5030535;28;20079;-73
2021/12/20 07:50:53;;;;;;;17.30;2.70;;;;;;;-145.18;100.00;47541.44;5045571;28;20048;-73
2021/12/20 07:53:18;;;;;;;18.13;2.63;;;;;;;-145.18;100.00;47572.72;5028280;28;20143;-73
2021/12/20 07:55:44;;;;;;;16.23;2.77;;;;;;;-145.18;100.00;47559.03;5045507;28;20574;-73
2021/12/20 07:58:10;;;;;;;12.20;2.70;;;;;;;-145.18;100.00;47559.03;5046124;28;20498;-73
2021/12/20 08:00:35;;;;;;;14.60;2.77;;;;;;;-145.18;100.00;47555.13;5046442;28;20274;-73
2021/12/20 08:03:01;;;;;;;16.63;2.53;;;;;;;-145.18;100.00;47545.34;5046683;28;20033;-73
2021/12/20 08:05:28;;;;;;;20.23;3.27;;;;;;;-145.18;100.00;47584.44;5033828;28;20136;-73
2021/12/20 08:07:54;;;;;;;20.17;4.17;;;;;;;-145.18;100.00;47549.25;5038299;28;20391;-73
2021/12/20 08:10:23;;;;;;;21.73;4.07;;;;;;;-145.18;100.00;47541.44;5037318;28;20436;-73
2021/12/20 08:12:50;;;;;;;17.27;2.10;;;;;;;-145.18;100.00;47561.00;5042223;28;20930;-73
2021/12/20 08:15:17;;;;;;;16.83;2.17;;;;;;;-145.18;100.00;47557.06;5046663;28;20643;-73
2021/12/20 08:17:43;;;;;;;20.83;2.77;;;;;;;-145.18;100.00;47561.00;5044851;28;20281;-73
2021/12/20 08:20:09;;;;;;;21.93;3.10;;;;;;;-145.18;100.00;47570.75;5050256;28;20789;-73
2021/12/20 08:22:35;;;;;;;18.97;2.30;;;;;;;-145.18;100.00;47551.22;5050628;28;20041;-73
2021/12/20 08:25:01;;;;;;;14.00;2.10;;;;;;;-145.18;100.00;47533.63;5048983;28;20278;-73
2021/12/20 08:27:26;;;;;;;23.43;2.93;;;;;;;-145.18;100.00;47551.22;5047899;28;20439;-73
2021/12/20 08:29:52;;;;;;;14.23;2.90;;;;;;;-145.18;100.00;47537.53;5050221;28;20041;-73
2021/12/20 08:32:17;;;;;;;19.50;2.83;;;;;;;-145.18;100.00;47553.16;5035399;28;20527;-73
2021/12/20 08:34:43;;;;;;;15.17;2.50;;;;;;;-145.18;100.00;47533.63;5033961;28;20080;-73
2021/12/20 08:37:08;;;;;;;18.43;3.83;;;;;;;-145.18;100.00;47529.72;5049613;28;20144;-73
2021/12/20 08:39:34;;;;;;;19.40;3.03;;;;;;;-145.18;100.00;47555.13;5049857;28;20045;-73
2021/12/20 08:42:03;;;;;;;20.50;3.07;;;;;;;-145.18;100.00;47551.22;5048736;28;20037;-73
2021/12/20 08:44:29;;;;;;;13.37;3.90;;;;;;;-145.18;100.00;47537.53;5048502;28;20765;-73
2021/12/20 08:46:55;;;;;;;15.57;2.60;;;;;;;-145.18;100.00;47541.44;5046241;28;20290;-73
2021/12/20 08:49:20;;;;;;;22.70;3.57;;;;;;;-145.18;100.00;47533.63;5049706;28;20282;-73
2021/12/20 08:51:46;;;;;;;22.87;3.20;;;;;;;-145.18;100.00;47537.53;5048093;28;20545;-73
2021/12/20 08:54:12;;;;;;;19.47;2.57;;;;;;;-145.18;100.00;47531.69;5049803;28;20098;-73
2021/12/20 08:56:38;;;;;;;20.83;3.10;;;;;;;-145.18;100.00;47561.00;5049524;28;20049;-73
2021/12/20 08:59:04;;;;;;;13.03;3.50;;;;;;;-145.18;100.00;47543.41;5048755;28;20277;-73
2021/12/20 09:01:31;;;;;;;15.03;3.00;;;;;;;-145.18;100.00;47541.44;5043443;28;20048;-73
2021/12/20 09:04:00;;;;;;;17.33;3.40;;;;;;;-145.18;100.00;47525.81;5043195;28;20286;-73
2021/12/20 09:06:26;;;;;;;24.53;6.33;;;;;;;-145.18;100.00;47521.91;5049123;28;20827;-73
2021/12/20 09:08:55;;;;;;;22.00;4.23;;;;;;;-145.18;100.00;47535.59;5048354;28;20274;-73
2021/12/20 09:11:22;;;;;;;25.17;5.03;;;;;;;-145.18;100.00;47525.81;5045787;28;20060;-73
2021/12/20 09:13:48;;;;;;;15.77;3.70;;;;;;;-145.18;100.00;47535.59;5048041;28;20278;-73
2021/12/20 09:16:14;;;;;;;11.67;2.73;;;;;;;-145.18;100.00;47535.59;5048910;28;20254;-72
2021/12/20 09:18:39;;;;;;;21.27;3.17;;;;;;;-145.18;100.00;47521.91;5048636;28;20631;-73
2021/12/20 09:21:05;;;;;;;17.53;2.87;;;;;;;-145.18;100.00;47559.03;5042706;28;20425;-73
2021/12/20 09:23:32;;;;;;;10.07;1.60;;;;;;;-145.18;100.00;47535.59;5040560;28;20029;-73
2021/12/20 09:25:57;;;;;;;16.57;2.07;;;;;;;-145.18;100.00;47541.44;5048893;28;20178;-73
2021/12/20 09:28:23;;;;;;;17.00;3.13;;;;;;;-145.18;100.00;47537.53;5047253;28;20288;-73
2021/12/20 09:30:49;;;;;;;17.60;2.50;;;;;;;-145.18;100.00;47535.59;5048158;28;20395;-73
2021/12/20 09:33:14;;;;;;;15.60;2.40;;;;;;;-145.18;100.00;47535.59;5048554;28;20071;-73
2021/12/20 09:35:41;;;;;;;29.03;2.87;;;;;;;-145.18;100.00;47529.72;5045432;28;20041;-73
2021/12/20 09:38:10;;;;;;;12.53;1.73;;;;;;;-145.18;100.00;47537.53;5047631;28;20047;-73
2021/12/20 09:40:40;;;;;;;13.17;1.70;;;;;;;-145.18;100.00;47537.53;5030400;28;20275;-73
2021/12/20 09:43:09;;;;;;;14.60;1.90;;;;;;;-145.18;100.00;47541.44;5047488;28;20468;-73
2021/12/20 09:45:35;;;;;;;13.03;2.47;;;;;;;-145.18;100.00;47529.72;5048507;28;20763;-73
2021/12/20 09:48:01;;;;;;;12.43;2.13;;;;;;;-145.18;100.00;47527.78;5047790;28;20290;-73
2021/12/20 09:50:27;;;;;;;12.53;2.07;;;;;;;-145.18;100.00;47523.88;5049040;28;20777;-73
2021/12/20 09:52:52;;;;;;;15.13;2.23;;;;;;;-145.18;100.00;47537.53;5047036;28;20166;-73
2021/12/20 09:55:19;;;;;;;19.47;2.17;;;;;;;-145.18;100.00;47537.53;5048659;28;20045;-73
2021/12/20 09:57:48;;;;;;;15.40;2.57;;;;;;;-145.18;100.00;47508.22;5039718;28;20964;-73
2021/12/20 10:00:18;;;;;;;20.13;3.50;;;;;;;-145.18;100.00;47521.91;5029704;28;20297;-73
2021/12/20 10:02:44;;;;;;;11.13;2.30;;;;;;;-145.18;100.00;47537.53;5031371;28;20341;-73
2021/12/20 10:05:11;;;;;;;23.77;2.70;;;;;;;-145.18;100.00;47518.00;5029270;28;20413;-73
2021/12/20 10:07:38;;;;;;;19.90;2.57;;;;;;;-145.18;100.00;47512.16;5033428;28;20259;-73
2021/12/20 10:10:06;;;;;;;16.23;2.37;;;;;;;-145.18;100.00;47514.09;5009259;28;20273;-73
2021/12/20 10:12:31;;;;;;;17.57;2.43;;;;;;;-145.18;100.00;47521.91;5031570;28;20278;-73
2021/12/20 10:14:59;;;;;;;13.70;2.83;;;;;;;-145.18;100.00;47518.00;5033074;28;20279;-73
2021/12/20 10:17:29;;;;;;;19.67;2.70;;;;;;;-145.18;100.00;47512.16;5039331;28;20052;-73
2021/12/20 10:19:55;;;;;;;17.03;3.00;;;;;;;-145.18;100.00;47510.19;5047665;28;20316;-74
2021/12/20 10:22:25;;;;;;;17.80;2.47;;;;;;;-145.18;100.00;47516.06;5045644;28;20274;-74
2021/12/20 10:24:51;;;;;;;20.70;2.80;;;;;;;-145.18;100.00;47510.19;5035271;28;20045;-73
2021/12/20 10:27:32;;;;;;;19.33;2.63;;;;;;;-145.18;100.00;47514.09;5040070;28;20282;-74
2021/12/20 10:29:58;;;;;;;16.07;2.80;;;;;;;-145.18;100.00;47508.22;5046656;28;20560;-73
2021/12/20 10:32:44;;;;;;;16.83;2.90;;;;;;;-145.18;100.00;47502.38;5048819;28;20285;-74
2021/12/20 10:35:30;;;;;;;13.55;2.65;;;;;;;-145.18;100.00;47506.28;5045147;28;20830;-74
2021/12/20 10:38:17;;;;;;;16.83;2.97;;;;;;;-145.18;100.00;47502.38;5039757;28;20127;-74
2021/12/20 10:40:49;;;;;;;15.83;2.50;;;;;;;-145.18;100.00;47500.41;5045057;28;20305;-74
2021/12/20 10:43:28;;;;;;;17.73;2.87;;;;;;;-145.18;100.00;47506.28;5046366;28;20278;-74
2021/12/20 10:45:55;;;;;;;13.53;3.00;;;;;;;-145.18;100.00;47504.31;5047051;28;20306;-74
2021/12/20 10:48:21;;;;;;;16.37;2.70;;;;;;;-145.18;100.00;47496.50;5046067;28;20288;-74
2021/12/20 10:50:47;;;;;;;19.83;3.17;;;;;;;-145.18;100.00;47510.19;5046711;28;20274;-74
2021/12/20 10:53:19;;;;;;;15.03;3.10;;;;;;;-145.18;100.00;47508.22;5045815;28;20047;-74
2021/12/20 10:55:51;;;;;;;13.00;2.20;;;;;;;-145.18;100.00;47504.31;5046835;28;20624;-75
2021/12/20 10:58:16;;;;;;;13.97;2.40;;;;;;;-145.18;100.00;47500.41;5046484;28;20286;-74
2021/12/20 11:00:42;;;;;;;11.90;2.10;;;;;;;-145.18;100.00;47482.84;5046805;28;20266;-74
2021/12/20 11:03:24;;;;;;;13.77;1.97;;;;;;;-145.18;100.00;47484.78;5046422;28;20056;-74
2021/12/20 11:09:20;;;;;;;15.57;2.70;;;;;;;-145.18;100.00;47490.66;5046099;28;20785;-74
2021/12/20 11:11:22;;;;;;;12.30;2.33;;;;;;;-145.18;100.00;47500.41;5036424;28;20353;-74
2021/12/20 11:13:48;;;;;;;10.87;1.47;;;;;;;-145.18;100.00;47482.84;5030077;28;20298;-74